Airports Sweden Gothenburg-Landvetter Airport

Gothenburg-Landvetter Airport (ESGG / GOT)

Facts about Gothenburg-Landvetter Airport

Name Gothenburg-Landvetter Airport
City Gothenborg
Country Sweden
ICAO code ESGG
IATA code GOT
Elevation 154.2288 meters (506 feet)

Weather

METAR

Metar data retrieved Saturday, 20 July 2024 at 00:25 UTC (19 minutes ago)

ESGG 192350Z 22003KT CAVOK 13/10 Q1018

Live traffic

Navigraph Charts (account required)